Time;durP1;ratioP1;P1;durP2;ratioP2;P2;SDS_P1;SDS_P2;PMS_P1;PMS_P2;Temp;Humidity;BMP_temperature;BMP_pressure;BME280_temperature;BME280_humidity;BME280_pressure;Samples;Min_cycle;Max_cycle;Signal;HPM_P1;HPM_P2
2022/09/24 00:02:03;;;;;;;8.93;4.20;;;;;;;;;;6087558;23;20280;-87
2022/09/24 00:05:08;;;;;;;8.53;4.40;;;;;;;;;;6086912;23;20170;-89
2022/09/24 00:08:14;;;;;;;9.90;4.57;;;;;;;;;;6085771;23;20239;-89
2022/09/24 00:11:20;;;;;;;11.07;4.40;;;;;;;;;;6086202;23;20301;-90
2022/09/24 00:14:27;;;;;;;12.80;4.13;;;;;;;;;;6086349;23;20210;-90
2022/09/24 00:17:32;;;;;;;13.07;5.07;;;;;;;;;;6084807;23;20297;-90
2022/09/24 00:20:37;;;;;;;11.37;4.57;;;;;;;;;;6087092;23;20161;-89
2022/09/24 00:23:42;;;;;;;16.37;4.50;;;;;;;;;;6085949;23;20182;-88
2022/09/24 00:26:49;;;;;;;10.27;4.53;;;;;;;;;;6086697;23;20286;-88
2022/09/24 00:29:55;;;;;;;9.90;4.80;;;;;;;;;;6086960;23;20218;-88
2022/09/24 00:33:00;;;;;;;13.90;5.03;;;;;;;;;;6085213;23;20264;-87
2022/09/24 00:36:06;;;;;;;10.23;4.10;;;;;;;;;;6086362;23;20185;-88
2022/09/24 00:39:12;;;;;;;9.50;4.40;;;;;;;;;;6085769;23;20265;-88
2022/09/24 00:42:19;;;;;;;7.13;4.10;;;;;;;;;;6085402;23;20315;-89
2022/09/24 00:45:27;;;;;;;8.97;3.83;;;;;;;;;;6085477;23;20205;-89
2022/09/24 00:48:33;;;;;;;9.83;4.20;;;;;;;;;;6084314;23;20266;-89
2022/09/24 00:51:39;;;;;;;6.17;3.97;;;;;;;;;;6085133;23;20165;-89
2022/09/24 00:54:45;;;;;;;8.73;4.00;;;;;;;;;;6086072;23;20178;-90
2022/09/24 00:57:51;;;;;;;8.77;4.07;;;;;;;;;;6085849;23;20174;-90
2022/09/24 01:00:59;;;;;;;6.97;3.90;;;;;;;;;;6085524;23;20189;-88
2022/09/24 01:04:05;;;;;;;9.53;4.17;;;;;;;;;;6085286;23;20268;-88
2022/09/24 01:07:09;;;;;;;7.63;4.03;;;;;;;;;;6087064;23;20177;-89
2022/09/24 01:10:46;;;;;;;11.90;3.90;;;;;;;;;;6086493;23;20178;-88
2022/09/24 01:13:47;;;;;;;7.20;3.83;;;;;;;;;;6103124;23;20177;-90
2022/09/24 01:16:57;;;;;;;9.50;4.43;;;;;;;;;;6086549;23;20178;-88
2022/09/24 01:20:17;;;;;;;7.80;3.70;;;;;;;;;;6087080;23;20202;-90
2022/09/24 01:23:30;;;;;;;8.73;3.97;;;;;;;;;;6086594;23;20170;-89
2022/09/24 01:26:50;;;;;;;8.83;4.37;;;;;;;;;;6086173;23;20503;-88
2022/09/24 01:30:02;;;;;;;8.60;3.83;;;;;;;;;;6086476;23;20174;-88
2022/09/24 01:33:09;;;;;;;7.57;3.80;;;;;;;;;;6085810;23;20174;-89
2022/09/24 01:36:14;;;;;;;13.73;5.00;;;;;;;;;;6085827;23;20174;-90
2022/09/24 01:39:19;;;;;;;7.33;4.10;;;;;;;;;;6085211;23;20197;-88
2022/09/24 01:42:26;;;;;;;6.30;3.80;;;;;;;;;;6087913;23;20174;-88
2022/09/24 01:45:37;;;;;;;8.00;4.60;;;;;;;;;;6086731;23;20197;-88
2022/09/24 01:48:42;;;;;;;10.20;4.27;;;;;;;;;;6086489;23;20269;-88
2022/09/24 01:51:50;;;;;;;8.03;4.10;;;;;;;;;;6086405;23;20190;-87
2022/09/24 01:54:56;;;;;;;11.07;3.53;;;;;;;;;;6086715;23;20189;-89
2022/09/24 01:58:03;;;;;;;12.83;3.90;;;;;;;;;;6089081;23;20177;-89
2022/09/24 02:01:12;;;;;;;7.73;4.00;;;;;;;;;;6086346;23;20157;-86
2022/09/24 02:04:18;;;;;;;8.50;4.60;;;;;;;;;;6084968;23;20173;-88
2022/09/24 02:07:27;;;;;;;9.50;4.27;;;;;;;;;;6086829;23;20170;-89
2022/09/24 02:10:36;;;;;;;9.93;4.60;;;;;;;;;;6085982;23;20158;-90
2022/09/24 02:13:43;;;;;;;8.37;4.30;;;;;;;;;;6087649;23;20205;-89
2022/09/24 02:16:50;;;;;;;11.60;5.43;;;;;;;;;;6087062;23;20162;-88
2022/09/24 02:19:57;;;;;;;10.63;4.10;;;;;;;;;;6084803;23;20198;-89
2022/09/24 02:23:04;;;;;;;9.17;4.40;;;;;;;;;;6085340;23;20246;-88
2022/09/24 02:26:12;;;;;;;13.30;4.33;;;;;;;;;;6086336;23;20178;-89
2022/09/24 02:29:18;;;;;;;8.13;4.40;;;;;;;;;;6085153;23;20185;-87
2022/09/24 02:32:26;;;;;;;8.13;4.20;;;;;;;;;;6084682;23;20206;-90
2022/09/24 02:35:31;;;;;;;8.80;4.30;;;;;;;;;;6084396;23;20177;-89
2022/09/24 02:38:36;;;;;;;10.77;4.27;;;;;;;;;;6086592;23;20166;-89
2022/09/24 02:41:42;;;;;;;8.63;4.17;;;;;;;;;;6086825;23;20217;-88
2022/09/24 02:44:47;;;;;;;9.23;4.17;;;;;;;;;;6086940;23;20568;-90
2022/09/24 02:47:53;;;;;;;9.97;4.00;;;;;;;;;;6086403;23;20170;-89
2022/09/24 02:50:59;;;;;;;7.13;4.03;;;;;;;;;;6086809;23;20240;-88
2022/09/24 02:54:04;;;;;;;6.53;3.47;;;;;;;;;;6087602;23;20207;-90
2022/09/24 02:57:10;;;;;;;6.20;3.80;;;;;;;;;;6086404;23;20173;-90
2022/09/24 03:00:19;;;;;;;7.43;3.87;;;;;;;;;;6087452;23;20213;-90
2022/09/24 03:03:30;;;;;;;7.07;3.97;;;;;;;;;;6086655;23;20174;-88
2022/09/24 03:06:36;;;;;;;5.60;3.70;;;;;;;;;;6085915;23;20165;-88
2022/09/24 03:09:42;;;;;;;8.03;3.73;;;;;;;;;;6088627;23;20245;-89
2022/09/24 03:12:47;;;;;;;9.97;3.63;;;;;;;;;;6086495;23;20170;-91
2022/09/24 03:15:52;;;;;;;7.10;4.10;;;;;;;;;;6086679;23;20242;-90
2022/09/24 03:18:58;;;;;;;7.97;4.17;;;;;;;;;;6087639;23;20170;-88
2022/09/24 03:22:03;;;;;;;5.87;3.80;;;;;;;;;;6086840;23;20498;-90
2022/09/24 03:25:09;;;;;;;7.23;3.97;;;;;;;;;;6087439;23;20174;-90
2022/09/24 03:28:14;;;;;;;9.30;4.17;;;;;;;;;;6087726;23;20174;-89
2022/09/24 03:31:23;;;;;;;10.57;4.53;;;;;;;;;;6086993;23;20178;-88
2022/09/24 03:34:29;;;;;;;16.10;7.23;;;;;;;;;;6086174;23;20249;-88
2022/09/24 03:37:37;;;;;;;11.93;5.20;;;;;;;;;;6086845;23;20234;-89
2022/09/24 03:40:42;;;;;;;10.23;4.90;;;;;;;;;;6085433;23;20301;-89
2022/09/24 03:43:46;;;;;;;11.23;5.47;;;;;;;;;;6086258;23;20674;-89
2022/09/24 03:46:51;;;;;;;10.80;4.80;;;;;;;;;;6085615;23;20677;-89
2022/09/24 03:49:58;;;;;;;7.80;4.73;;;;;;;;;;6086998;23;20166;-89
2022/09/24 03:53:03;;;;;;;8.63;4.50;;;;;;;;;;6085940;23;20570;-89
2022/09/24 03:56:08;;;;;;;10.33;4.67;;;;;;;;;;6085606;23;20614;-89
2022/09/24 03:59:13;;;;;;;11.23;4.37;;;;;;;;;;6086576;23;20297;-89
2022/09/24 04:02:18;;;;;;;10.50;4.73;;;;;;;;;;6085454;23;20213;-90
2022/09/24 04:05:25;;;;;;;7.20;4.30;;;;;;;;;;6105464;23;20297;-89
2022/09/24 04:08:31;;;;;;;8.50;5.17;;;;;;;;;;6086916;23;20170;-89
2022/09/24 04:11:36;;;;;;;9.23;4.83;;;;;;;;;;6086443;23;20173;-90
2022/09/24 04:14:41;;;;;;;10.43;5.30;;;;;;;;;;6085307;23;20178;-90
2022/09/24 04:17:50;;;;;;;9.23;5.17;;;;;;;;;;6085892;23;20169;-87
2022/09/24 04:21:00;;;;;;;9.53;5.10;;;;;;;;;;6084994;23;20201;-90
2022/09/24 04:24:05;;;;;;;10.10;5.07;;;;;;;;;;6086914;23;20177;-90
2022/09/24 04:27:10;;;;;;;8.30;4.77;;;;;;;;;;6086660;23;20178;-88
2022/09/24 04:30:18;;;;;;;8.13;4.57;;;;;;;;;;6086809;23;20214;-87
2022/09/24 04:33:23;;;;;;;11.20;5.37;;;;;;;;;;6086064;23;20213;-90
2022/09/24 04:36:30;;;;;;;8.77;4.60;;;;;;;;;;6086104;23;20210;-89
2022/09/24 04:39:35;;;;;;;9.10;5.03;;;;;;;;;;6086528;23;20193;-90
2022/09/24 04:42:40;;;;;;;9.13;4.70;;;;;;;;;;6087401;23;20174;-91
2022/09/24 04:45:45;;;;;;;9.60;4.47;;;;;;;;;;6084980;23;20197;-90
2022/09/24 04:48:52;;;;;;;9.27;4.77;;;;;;;;;;6086900;23;20204;-89
2022/09/24 04:51:58;;;;;;;10.37;5.30;;;;;;;;;;6086477;23;20287;-89
2022/09/24 04:55:04;;;;;;;12.10;4.93;;;;;;;;;;6085991;23;20601;-89
2022/09/24 04:58:09;;;;;;;9.63;5.17;;;;;;;;;;6104829;23;20173;-88
2022/09/24 05:01:14;;;;;;;12.73;4.93;;;;;;;;;;6085679;23;20318;-90
2022/09/24 05:04:19;;;;;;;8.40;4.87;;;;;;;;;;6085597;23;20237;-89
2022/09/24 05:07:25;;;;;;;11.17;5.10;;;;;;;;;;6085908;23;20177;-89
2022/09/24 05:10:31;;;;;;;9.97;5.20;;;;;;;;;;6084921;23;20626;-91
2022/09/24 05:13:37;;;;;;;10.27;4.73;;;;;;;;;;6083102;23;20166;-89
2022/09/24 05:16:42;;;;;;;15.53;6.73;;;;;;;;;;6084168;23;20226;-89
2022/09/24 05:19:49;;;;;;;13.70;6.37;;;;;;;;;;6084849;23;20924;-89
2022/09/24 05:22:55;;;;;;;13.03;6.43;;;;;;;;;;6085136;23;20185;-88
2022/09/24 05:29:23;;;;;;;12.67;6.40;;;;;;;;;;6085190;23;20165;-90
2022/09/24 05:32:28;;;;;;;12.87;6.63;;;;;;;;;;6086467;23;20269;-89
2022/09/24 05:35:33;;;;;;;14.77;6.73;;;;;;;;;;6085872;23;20177;-90
2022/09/24 05:38:39;;;;;;;9.97;5.53;;;;;;;;;;6086541;23;20192;-90
2022/09/24 05:41:44;;;;;;;9.73;5.67;;;;;;;;;;6085944;23;20185;-91
2022/09/24 05:44:49;;;;;;;10.20;4.97;;;;;;;;;;6087106;23;20221;-88
2022/09/24 05:47:54;;;;;;;8.97;5.00;;;;;;;;;;6084184;23;20210;-89
2022/09/24 05:51:01;;;;;;;8.53;4.97;;;;;;;;;;6084084;23;20166;-91
2022/09/24 05:54:09;;;;;;;11.90;5.60;;;;;;;;;;6085922;23;20177;-90
2022/09/24 05:57:14;;;;;;;9.93;5.50;;;;;;;;;;6102751;23;20186;-89
2022/09/24 06:00:19;;;;;;;11.90;5.70;;;;;;;;;;6084324;23;20762;-89
2022/09/24 06:03:24;;;;;;;11.73;5.83;;;;;;;;;;6085197;23;20202;-90
2022/09/24 06:06:29;;;;;;;10.13;5.80;;;;;;;;;;6085634;23;20173;-89
2022/09/24 06:09:36;;;;;;;10.87;5.63;;;;;;;;;;6087458;23;20178;-90
2022/09/24 06:12:42;;;;;;;12.80;5.13;;;;;;;;;;6087689;23;20181;-90
2022/09/24 06:15:49;;;;;;;12.07;5.50;;;;;;;;;;6089221;23;20187;-91
2022/09/24 06:18:53;;;;;;;9.10;5.00;;;;;;;;;;6087254;23;20173;-92
2022/09/24 06:21:58;;;;;;;13.13;6.00;;;;;;;;;;6087292;23;20169;-92
2022/09/24 06:25:05;;;;;;;9.13;5.13;;;;;;;;;;6088458;23;20161;-90
2022/09/24 06:28:10;;;;;;;14.57;5.57;;;;;;;;;;6088070;23;20249;-91
2022/09/24 06:31:15;;;;;;;12.10;5.53;;;;;;;;;;6087211;23;20181;-90
2022/09/24 06:34:20;;;;;;;11.50;5.53;;;;;;;;;;6089027;23;20166;-91
2022/09/24 06:37:26;;;;;;;10.47;5.70;;;;;;;;;;6090879;23;20172;-90
2022/09/24 06:40:33;;;;;;;12.27;6.00;;;;;;;;;;6089108;23;20198;-88
2022/09/24 06:43:39;;;;;;;15.73;5.77;;;;;;;;;;6086984;23;20230;-90
2022/09/24 06:46:53;;;;;;;9.40;5.23;;;;;;;;;;6089293;23;20177;-89
2022/09/24 06:50:02;;;;;;;14.73;5.67;;;;;;;;;;6087342;23;20182;-90
2022/09/24 06:53:07;;;;;;;10.30;5.57;;;;;;;;;;6088937;23;20218;-90
2022/09/24 06:56:13;;;;;;;9.23;5.10;;;;;;;;;;6090997;23;20181;-89
2022/09/24 06:59:18;;;;;;;9.05;5.05;;;;;;;;;;6088519;23;20194;-90
2022/09/24 07:02:23;;;;;;;12.07;5.47;;;;;;;;;;6089281;23;20614;-90
2022/09/24 07:05:29;;;;;;;10.17;4.80;;;;;;;;;;6090927;23;20616;-87
2022/09/24 07:08:33;;;;;;;11.02;5.70;;;;;;;;;;6090397;23;20199;-90
2022/09/24 07:11:40;;;;;;;16.00;5.63;;;;;;;;;;6089051;23;20193;-86
2022/09/24 07:14:45;;;;;;;9.15;5.07;;;;;;;;;;6090405;23;20177;-91
2022/09/24 07:17:56;;;;;;;13.77;5.50;;;;;;;;;;6089954;23;20285;-89
2022/09/24 07:21:02;;;;;;;15.10;6.78;;;;;;;;;;6087772;23;20193;-91
2022/09/24 07:24:08;;;;;;;12.00;6.07;;;;;;;;;;6088726;23;20500;-88
2022/09/24 07:27:16;;;;;;;10.35;5.45;;;;;;;;;;6088096;23;20617;-88
2022/09/24 07:30:21;;;;;;;10.48;5.63;;;;;;;;;;6088260;23;20178;-90
2022/09/24 07:33:27;;;;;;;10.55;5.20;;;;;;;;;;6087317;23;20170;-90
2022/09/24 07:36:33;;;;;;;11.60;5.50;;;;;;;;;;6087690;23;20221;-89
2022/09/24 07:39:38;;;;;;;14.23;6.57;;;;;;;;;;6088185;23;20181;-87
2022/09/24 07:46:33;;;;;;;9.98;5.28;;;;;;;;;;6085861;23;20317;-89
2022/09/24 07:49:38;;;;;;;12.68;5.93;;;;;;;;;;6086350;23;20650;-90
2022/09/24 07:52:43;;;;;;;8.18;5.07;;;;;;;;;;6086355;23;20233;-89
2022/09/24 07:55:49;;;;;;;11.57;5.28;;;;;;;;;;6085478;23;20293;-89
2022/09/24 07:58:55;;;;;;;10.30;5.40;;;;;;;;;;6086521;23;20173;-89
2022/09/24 08:02:00;;;;;;;8.95;5.18;;;;;;;;;;6089132;23;20194;-89
2022/09/24 08:05:08;;;;;;;13.57;6.43;;;;;;;;;;6091823;23;20154;-90
2022/09/24 08:08:14;;;;;;;7.93;4.78;;;;;;;;;;6092713;23;20182;-92
2022/09/24 08:14:42;;;;;;;10.30;5.47;;;;;;;;;;6096110;23;20166;-89
2022/09/24 08:17:47;;;;;;;8.20;4.53;;;;;;;;;;6091374;23;20181;-90
2022/09/24 08:20:52;;;;;;;7.50;4.50;;;;;;;;;;6086877;23;20314;-89
2022/09/24 08:23:57;;;;;;;9.07;4.93;;;;;;;;;;6088154;23;20189;-91
2022/09/24 08:27:02;;;;;;;9.45;5.10;;;;;;;;;;6086956;23;20349;-90
2022/09/24 08:30:10;;;;;;;9.95;5.22;;;;;;;;;;6090696;23;20173;-91
2022/09/24 08:33:15;;;;;;;9.85;4.40;;;;;;;;;;6089317;23;20178;-91
2022/09/24 08:36:20;;;;;;;8.20;4.35;;;;;;;;;;6090293;23;20289;-90
2022/09/24 08:39:26;;;;;;;9.52;5.03;;;;;;;;;;6092340;23;20249;-92
2022/09/24 08:42:36;;;;;;;8.32;4.38;;;;;;;;;;6088239;23;20255;-90
2022/09/24 08:49:33;;;;;;;9.80;5.25;;;;;;;;;;6088823;23;20234;-91
2022/09/24 08:52:47;;;;;;;7.10;4.47;;;;;;;;;;6089586;23;20170;-90
2022/09/24 08:55:54;;;;;;;7.25;4.82;;;;;;;;;;6090600;23;20190;-89
2022/09/24 08:59:00;;;;;;;10.10;4.85;;;;;;;;;;6088549;23;20174;-88
2022/09/24 09:02:15;;;;;;;9.18;4.43;;;;;;;;;;6088586;23;20205;-91
2022/09/24 09:05:26;;;;;;;10.52;4.47;;;;;;;;;;6091504;23;20170;-89
2022/09/24 09:08:36;;;;;;;7.18;4.35;;;;;;;;;;6087957;23;20289;-90
2022/09/24 09:11:41;;;;;;;12.95;4.47;;;;;;;;;;6086327;23;20677;-92
2022/09/24 09:14:50;;;;;;;8.57;4.97;;;;;;;;;;6086959;23;20177;-89
2022/09/24 09:17:58;;;;;;;9.57;4.07;;;;;;;;;;6086993;23;20262;-90
2022/09/24 09:21:07;;;;;;;10.15;4.50;;;;;;;;;;6088152;23;20336;-90
2022/09/24 09:24:17;;;;;;;9.73;4.15;;;;;;;;;;6087188;23;20659;-89
2022/09/24 09:27:22;;;;;;;8.45;4.70;;;;;;;;;;6088388;23;20162;-88
2022/09/24 09:30:27;;;;;;;7.60;4.07;;;;;;;;;;6086750;23;20656;-90
2022/09/24 09:33:39;;;;;;;9.23;4.15;;;;;;;;;;6089788;23;20165;-92
2022/09/24 09:36:54;;;;;;;7.93;4.90;;;;;;;;;;6093397;23;20294;-90
2022/09/24 09:40:19;;;;;;;8.80;4.50;;;;;;;;;;6090450;23;20178;-90
2022/09/24 09:43:27;;;;;;;12.57;4.72;;;;;;;;;;6090345;23;20189;-89
2022/09/24 09:46:48;;;;;;;7.60;4.60;;;;;;;;;;6093832;23;20215;-91
2022/09/24 09:49:56;;;;;;;11.13;5.05;;;;;;;;;;6091878;23;20174;-91
2022/09/24 09:53:05;;;;;;;12.80;4.57;;;;;;;;;;6091181;23;20173;-92
2022/09/24 09:56:11;;;;;;;6.22;3.97;;;;;;;;;;6093696;23;20170;-91
2022/09/24 19:40:43;;;;;;;58.35;25.85;;;;;;;;;;6028476;23;20163;-92
2022/09/24 19:43:50;;;;;;;52.65;23.00;;;;;;;;;;6009621;23;20176;-90
2022/09/24 19:46:55;;;;;;;58.25;26.33;;;;;;;;;;6004535;23;20223;-91
2022/09/24 19:50:01;;;;;;;391.02;111.00;;;;;;;;;;6007506;23;20184;-92
2022/09/24 19:53:08;;;;;;;118.20;48.42;;;;;;;;;;6009632;23;20183;-90
2022/09/24 19:56:32;;;;;;;58.97;29.95;;;;;;;;;;6010451;23;20171;-92
